Погода Амазонасна 2 недели

Амазонас, Бразилия

20 июня-02 июля
  • 20июня
    Сегодня
    +17°
    +30°
    Небольшая облачность
    ВремяПогодаТемператураВлажностьДавлениеВетер, м/сВероятность осадков
    00:00Ясно и безоблачно+22°C68 %711 мм4.7 м/с5 %
    03:00Ясно и безоблачно+20°C75 %710 мм4.3 м/с5 %
    06:00Ясно и безоблачно+18°C82 %711 мм4.1 м/с5 %
    09:00Ясно и безоблачно+24°C63 %713 мм3.8 м/с4 %
    12:00Облачно с прояснениями+28°C48 %713 мм4.8 м/с10 %
    15:00Небольшая облачность+30°C43 %711 мм4.0 м/с9 %
    18:00Ясно и безоблачно+25°C54 %711 мм2.1 м/с5 %
    21:00Ясно и безоблачно+24°C62 %712 мм2.3 м/с5 %
  • 21июня
    Пятница
    +17°
    +30°
    Облачно с прояснениями
    ВремяПогодаТемператураВлажностьДавлениеВетер, м/сВероятность осадков
    00:00Ясно и безоблачно+21°C59 %712 мм3.6 м/с5 %
    03:00Ясно и безоблачно+20°C71 %711 мм3.4 м/с5 %
    06:00Ясно и безоблачно+18°C82 %711 мм3.0 м/с5 %
    09:00Ясно и безоблачно+23°C63 %713 мм3.6 м/с4 %
    12:00Небольшая облачность+28°C44 %712 мм4.7 м/с4 %
    15:00Облачно с прояснениями+29°C42 %711 мм4.0 м/с3 %
    18:00Ясно и безоблачно+25°C52 %711 мм3.7 м/с5 %
    21:00Ясно и безоблачно+24°C60 %712 мм3.6 м/с5 %
  • 22июня
    Суббота
    +17°
    +30°
    Практически безоблачно
    ВремяПогодаТемператураВлажностьДавлениеВетер, м/сВероятность осадков
    00:00Ясно и безоблачно+21°C65 %712 мм4.8 м/с5 %
    03:00Ясно и безоблачно+19°C75 %711 мм3.4 м/с5 %
    06:00Ясно и безоблачно+18°C80 %711 мм2.3 м/с5 %
    09:00Небольшая облачность+24°C53 %713 мм2.3 м/с5 %
    12:00Небольшая облачность+28°C43 %713 мм3.8 м/с5 %
    15:00Практически безоблачно+30°C35 %711 мм3.7 м/с5 %
    18:00Ясно и безоблачно+25°C46 %711 мм3.5 м/с5 %
    21:00Ясно и безоблачно+24°C58 %712 мм4.7 м/с5 %
  • 23июня
    Воскресенье
    +18°
    +31°
    Небольшая облачность
    ВремяПогодаТемператураВлажностьДавлениеВетер, м/сВероятность осадков
    00:00Ясно и безоблачно+22°C69 %711 мм4.9 м/с5 %
    03:00Ясно и безоблачно+20°C81 %710 мм4.5 м/с5 %
    06:00Облачно с прояснениями+18°C91 %711 мм1.7 м/с5 %
    09:00Облачно с прояснениями+23°C67 %714 мм2.5 м/с5 %
    12:00Небольшая облачность+28°C41 %713 мм3.0 м/с5 %
    15:00Небольшая облачность+31°C33 %711 мм2.9 м/с5 %
    18:00Ясно и безоблачно+26°C42 %710 мм2.7 м/с5 %
    21:00Ясно и безоблачно+25°C50 %711 мм3.4 м/с5 %
Мы используем cookies
Соглашаюсь